^^
Marion, Virginia Banner
 

Adwolf, VA. Station Historical Data
[ Providing Data Since 6/07/2007 ]
Station Historical Data
Daily Summary for September 13, 2017 Units:  Metric    English   Both
« Previous Day
Next Day »
Daily Weekly Monthly Yearly Custom
  High: Low: Average:
Temperature: 26.4 °C 12.4 °C 19 °C
Dew Point: 16.8 °C 11.1 °C 13.6 °C
Humidity: 93% 40% 74%
Wind Speed: 24.1km/h 0km/h 6.9km/h
Wind Gust: 24.1km/h - -
Wind- - South
Pressure: 1014.4 hPa 1009.4 hPa -
Precipitation: 0 mm    
Historical Graphs
 
 
Tabular Data for September 13, 2017
Time Temperature Dew Point Pressure Wind Wind Speed Wind Gust Humidity Rainfall Rate (Hourly) solar Conditions
00:03 20.1 °C 16.5 °C 1013.8 hPa East 3.7 km/h 3.7 km/h 80% 0 mm WeatherDisplay:10.37 W/m2 RA
00:08 20.1 °C 16.5 °C 1013.8 hPa East 5.6 km/h 5.6 km/h 80% 0 mm WeatherDisplay:10.37 W/m2 RA
00:13 19.9 °C 16.6 °C 1013.8 hPa East 1.9 km/h 1.9 km/h 81% 0 mm WeatherDisplay:10.37 W/m2 OVC
00:18 19.8 °C 16.4 °C 1013.8 hPa East 1.9 km/h 1.9 km/h 81% 0 mm WeatherDisplay:10.37 W/m2 OVC
00:23 19.5 °C 16.5 °C 1013.8 hPa South 5.6 km/h 5.6 km/h 83% 0 mm WeatherDisplay:10.37 W/m2 OVC
00:28 19.2 °C 16.6 °C 1013.8 hPa Calm     85% 0 mm WeatherDisplay:10.37 W/m2 OVC
00:33 19.1 °C 16.6 °C 1014.1 hPa South 3.7 km/h 3.7 km/h 86% 0 mm WeatherDisplay:10.37 W/m2 OVC
00:38 18.9 °C 16.7 °C 1014.1 hPa NW 5.6 km/h 5.6 km/h 87% 0 mm WeatherDisplay:10.37 W/m2 OVC
00:43 18.8 °C 16.8 °C 1014.4 hPa Calm     88% 0 mm WeatherDisplay:10.37 W/m2 OVC
00:48 18.7 °C 16.7 °C 1014.1 hPa NW 3.7 km/h 3.7 km/h 88% 0 mm WeatherDisplay:10.37 W/m2 OVC
00:53 18.6 °C 16.6 °C 1014.1 hPa Calm     88% 0 mm WeatherDisplay:10.37 W/m2 OVC
00:58 18.5 °C 16.6 °C 1014.4 hPa NW 1.9 km/h   89% 0 mm WeatherDisplay:10.37 W/m2 OVC
01:03 18.4 °C 16.5 °C 1014.4 hPa NW 3.7 km/h 3.7 km/h 89% 0 mm WeatherDisplay:10.37 W/m2 OVC
01:08 18.3 °C 16.4 °C 1014.4 hPa NW 3.7 km/h 3.7 km/h 89% 0 mm WeatherDisplay:10.37 W/m2 OVC
01:13 18.2 °C 16.3 °C 1014.1 hPa South 8 km/h 8 km/h 89% 0 mm WeatherDisplay:10.37 W/m2 OVC
01:14 18.2 °C 16.3 °C 1014.1 hPa South 7.4 km/h 7.4 km/h 89% 0 mm WeatherDisplay:10.37 W/m2 OVC
01:19 18.1 °C 16.2 °C 1014.1 hPa South 5.6 km/h 5.6 km/h 89% 0 mm WeatherDisplay:10.37 W/m2 OVC
01:24 18.1 °C 16 °C 1014.4 hPa South 3.7 km/h 3.7 km/h 88% 0 mm WeatherDisplay:10.37 W/m2 OVC
01:29 18 °C 15.9 °C 1014.1 hPa South 3.7 km/h 3.7 km/h 88% 0 mm WeatherDisplay:10.37 W/m2 OVC
01:34 17.9 °C 15.8 °C 1014.1 hPa South 3.7 km/h 3.7 km/h 88% 0 mm WeatherDisplay:10.37 W/m2 OVC
01:39 17.8 °C 15.7 °C 1014.4 hPa South 3.7 km/h 3.7 km/h 88% 0 mm WeatherDisplay:10.37 W/m2 OVC
01:44 17.6 °C 15.5 °C 1014.4 hPa South 3.7 km/h 3.7 km/h 88% 0 mm WeatherDisplay:10.37 W/m2 OVC
01:54 17.1 °C 15.2 °C 1014.4 hPa South 1.9 km/h 1.9 km/h 89% 0 mm WeatherDisplay:10.37 W/m2 OVC
01:59 16.9 °C 15.1 °C 1014.4 hPa South 1.9 km/h   89% 0 mm WeatherDisplay:10.37 W/m2 OVC
02:04 16.8 °C 14.9 °C 1011.1 hPa SSW 3.7 km/h 3.7 km/h 89% 0 mm WeatherDisplay:10.37 W/m2 OVC
02:09 16.7 °C 15 °C 1011.1 hPa SSW 3.7 km/h 3.7 km/h 90% 0 mm WeatherDisplay:10.37 W/m2 OVC
02:14 16.6 °C 14.9 °C 1011.1 hPa SSW 1.9 km/h 1.9 km/h 90% 0 mm WeatherDisplay:10.37 W/m2 OVC
02:19 16.4 °C 14.8 °C 1011.1 hPa Calm     90% 0 mm WeatherDisplay:10.37 W/m2 OVC
02:24 16.3 °C 14.6 °C 1010.7 hPa Calm     90% 0 mm WeatherDisplay:10.37 W/m2 BKN
02:29 16.1 °C 14.4 °C 1010.7 hPa SSW 1.6 km/h   90% 0 mm WeatherDisplay:10.37 W/m2 BKN
02:34 15.8 °C 14.2 °C 1011.1 hPa Calm     90% 0 mm WeatherDisplay:10.37 W/m2 BKN
02:39 15.7 °C 14 °C 1011.1 hPa SSW 1.9 km/h 1.9 km/h 90% 0 mm WeatherDisplay:10.37 W/m2 BKN
02:44 15.4 °C 13.8 °C 1011.1 hPa SSW 3.7 km/h 3.7 km/h 90% 0 mm WeatherDisplay:10.37 W/m2 SCT
02:49 15.3 °C 13.8 °C 1011.1 hPa SSW 3.7 km/h 3.7 km/h 91% 0 mm WeatherDisplay:10.37 W/m2 SCT
02:54 15.2 °C 13.7 °C 1011.1 hPa SSW 1.6 km/h 1.6 km/h 91% 0 mm WeatherDisplay:10.37 W/m2 SCT
02:59 15 °C 13.5 °C 1011.1 hPa SSW 1.9 km/h 1.9 km/h 91% 0 mm WeatherDisplay:10.37 W/m2 SCT
03:04 14.9 °C 13.4 °C 1011.1 hPa Calm     91% 0 mm WeatherDisplay:10.37 W/m2 CLR
03:09 14.8 °C 13.3 °C 1011.1 hPa Calm     91% 0 mm WeatherDisplay:10.37 W/m2 CLR
03:14 14.7 °C 13.2 °C 1011.1 hPa Calm     91% 0 mm WeatherDisplay:10.37 W/m2 CLR
03:19 14.6 °C 13.1 °C 1011.1 hPa Calm     91% 0 mm WeatherDisplay:10.37 W/m2 CLR
03:24 14.5 °C 13 °C 1011.1 hPa Calm     91% 0 mm WeatherDisplay:10.37 W/m2 CLR
03:29 14.4 °C 12.9 °C 1011.4 hPa Calm     91% 0 mm WeatherDisplay:10.37 W/m2 CLR
03:34 14.4 °C 12.9 °C 1011.4 hPa Calm     91% 0 mm WeatherDisplay:10.37 W/m2 CLR
03:39 14.3 °C 12.8 °C 1011.4 hPa Calm     91% 0 mm WeatherDisplay:10.37 W/m2 CLR
03:44 14.2 °C 12.7 °C 1011.4 hPa Calm     91% 0 mm WeatherDisplay:10.37 W/m2 CLR
03:49 13.9 °C 12.5 °C 1011.4 hPa Calm     91% 0 mm WeatherDisplay:10.37 W/m2 CLR
03:54 13.8 °C 12.3 °C 1011.4 hPa Calm     91% 0 mm WeatherDisplay:10.37 W/m2 CLR
03:59 13.7 °C 12.2 °C 1011.4 hPa Calm     91% 0 mm WeatherDisplay:10.37 W/m2 CLR
04:04 13.5 °C 12.1 °C 1011.4 hPa Calm     91% 0 mm WeatherDisplay:10.37 W/m2 CLR
04:09 13.4 °C 11.9 °C 1011.7 hPa Calm     91% 0 mm WeatherDisplay:10.37 W/m2 CLR
04:14 13.4 °C 11.9 °C 1011.7 hPa Calm     91% 0 mm WeatherDisplay:10.37 W/m2 CLR
04:19 13.3 °C 11.8 °C 1011.7 hPa Calm     91% 0 mm WeatherDisplay:10.37 W/m2 CLR
04:24 13.2 °C 11.7 °C 1011.4 hPa Calm     91% 0 mm WeatherDisplay:10.37 W/m2 BKN
04:29 13 °C 11.6 °C 1011.7 hPa SSW 1.9 km/h 1.9 km/h 91% 0 mm WeatherDisplay:10.37 W/m2 BKN
04:34 12.9 °C 11.4 °C 1011.7 hPa SSW 3.7 km/h 3.7 km/h 91% 0 mm WeatherDisplay:10.37 W/m2 BKN
04:39 12.7 °C 11.3 °C 1011.7 hPa SSW 3.7 km/h 3.7 km/h 91% 0 mm WeatherDisplay:10.37 W/m2 BKN
04:44 12.7 °C 11.2 °C 1011.7 hPa Calm     91% 0 mm WeatherDisplay:10.37 W/m2 OVC
04:49 12.6 °C 11.2 °C 1011.7 hPa Calm     91% 0 mm WeatherDisplay:10.37 W/m2 OVC
04:54 12.6 °C 11.2 °C 1011.7 hPa Calm     91% 0 mm WeatherDisplay:10.37 W/m2 OVC
04:59 12.6 °C 11.2 °C 1011.7 hPa SSW 1.9 km/h   91% 0 mm WeatherDisplay:10.37 W/m2 OVC
05:04 12.6 °C 11.2 °C 1012.1 hPa SSW 1.9 km/h   91% 0 mm WeatherDisplay:10.37 W/m2 OVC
05:09 12.6 °C 11.1 °C 1012.1 hPa SSW 1.9 km/h 1.9 km/h 91% 0 mm WeatherDisplay:10.37 W/m2 OVC
05:14 12.6 °C 11.1 °C 1012.1 hPa SSW 1.9 km/h 1.9 km/h 91% 0 mm WeatherDisplay:10.37 W/m2 OVC
05:19 12.6 °C 11.3 °C 1012.1 hPa SSW 1.9 km/h   92% 0 mm WeatherDisplay:10.37 W/m2 OVC
05:24 12.6 °C 11.3 °C 1012.4 hPa SSW 1.9 km/h   92% 0 mm WeatherDisplay:10.37 W/m2 OVC
05:29 12.6 °C 11.3 °C 1012.4 hPa SSW 3.2 km/h 3.2 km/h 92% 0 mm WeatherDisplay:10.37 W/m2 OVC
05:34 12.7 °C 11.4 °C 1012.4 hPa SSW 1.9 km/h 1.9 km/h 92% 0 mm WeatherDisplay:10.37 W/m2 OVC
05:39 12.7 °C 11.4 °C 1012.4 hPa SSW 1.9 km/h 1.9 km/h 92% 0 mm WeatherDisplay:10.37 W/m2 OVC
05:44 12.7 °C 11.4 °C 1012.4 hPa SSW 1.9 km/h 1.9 km/h 92% 0 mm WeatherDisplay:10.37 W/m2 OVC
05:49 12.7 °C 11.4 °C 1012.4 hPa Calm     92% 0 mm WeatherDisplay:10.37 W/m2 OVC
05:54 12.6 °C 11.3 °C 1012.8 hPa SSW 1.9 km/h 1.9 km/h 92% 0 mm WeatherDisplay:10.37 W/m2 OVC
05:59 12.6 °C 11.3 °C 1012.8 hPa SSW 1.9 km/h 1.9 km/h 92% 0 mm WeatherDisplay:10.37 W/m2 OVC
06:04 12.5 °C 11.2 °C 1012.8 hPa SSW 3.7 km/h 3.7 km/h 92% 0 mm WeatherDisplay:10.37 W/m2 OVC
06:09 12.5 °C 11.2 °C 1012.8 hPa SSW 3.7 km/h 3.7 km/h 92% 0 mm WeatherDisplay:10.37 W/m2 OVC
06:14 12.4 °C 11.1 °C 1012.8 hPa SE 3.7 km/h 3.7 km/h 92% 0 mm WeatherDisplay:10.37 W/m2 OVC
06:19 12.5 °C 11.2 °C 1012.8 hPa SE 4.8 km/h 4.8 km/h 92% 0 mm WeatherDisplay:10.37 W/m2 OVC
06:24 12.5 °C 11.2 °C 1012.8 hPa SE 3.7 km/h 3.7 km/h 92% 0 mm WeatherDisplay:10.37 W/m2 OVC
06:29 12.6 °C 11.3 °C 1012.4 hPa ESE 4.8 km/h 4.8 km/h 92% 0 mm WeatherDisplay:10.37 W/m2 OVC
06:34 12.7 °C 11.4 °C 1012.4 hPa ESE 5.6 km/h 5.6 km/h 92% 0 mm WeatherDisplay:10.37 W/m2 OVC
06:44 12.8 °C 11.6 °C 1012.8 hPa ESE 5.6 km/h 5.6 km/h 92% 0 mm WeatherDisplay:10.37 W/m2 OVC
06:49 12.9 °C 11.6 °C 1012.8 hPa ESE 3.7 km/h 3.7 km/h 92% 0 mm WeatherDisplay:10.37 W/m2 OVC
06:54 12.9 °C 11.7 °C 1012.8 hPa NE 5.6 km/h 5.6 km/h 92% 0 mm WeatherDisplay:10.37 W/m2 OVC
06:59 12.9 °C 11.7 °C 1012.8 hPa NE 5.6 km/h 5.6 km/h 92% 0 mm WeatherDisplay:10.37 W/m2 OVC
07:04 12.9 °C 11.7 °C 1013.1 hPa NE 5.6 km/h 5.6 km/h 92% 0 mm WeatherDisplay:10.37 W/m2 OVC
07:09 12.9 °C 11.7 °C 1013.1 hPa NE 5.6 km/h 5.6 km/h 92% 0 mm WeatherDisplay:10.37 W/m2 OVC
07:14 12.9 °C 11.6 °C 1013.1 hPa NE 3.7 km/h 3.7 km/h 92% 0 mm WeatherDisplay:10.37 W/m2 OVC
07:19 12.9 °C 11.6 °C 1013.1 hPa NE 3.7 km/h 3.7 km/h 92% 0 mm WeatherDisplay:10.37 W/m2 OVC
07:24 12.8 °C 11.6 °C 1013.1 hPa NE 3.7 km/h 3.7 km/h 92% 0 mm WeatherDisplay:10.37 W/m2 OVC
07:29 12.8 °C 11.6 °C 1013.1 hPa NE 3.7 km/h 3.7 km/h 92% 0 mm WeatherDisplay:10.37 W/m2 OVC
07:39 12.8 °C 11.6 °C 1013.1 hPa ENE 5.6 km/h 5.6 km/h 92% 0 mm WeatherDisplay:10.37 W/m2 OVC
07:44 12.8 °C 11.5 °C 1013.1 hPa ENE 5.6 km/h 5.6 km/h 92% 0 mm WeatherDisplay:10.37 W/m2 OVC
07:49 12.8 °C 11.5 °C 1013.4 hPa ESE 5.6 km/h 5.6 km/h 92% 0 mm WeatherDisplay:10.37 W/m2 OVC
07:54 12.8 °C 11.5 °C 1013.4 hPa ESE 5.6 km/h 5.6 km/h 92% 0 mm WeatherDisplay:10.37 W/m2 OVC
07:59 12.9 °C 11.6 °C 1013.4 hPa ESE 5.6 km/h 5.6 km/h 92% 0 mm WeatherDisplay:10.37 W/m2 OVC
08:04 12.9 °C 11.7 °C 1013.4 hPa ESE 5.6 km/h 5.6 km/h 92% 0 mm WeatherDisplay:10.37 W/m2 OVC
08:09 13 °C 11.7 °C 1013.4 hPa ESE 5.6 km/h 5.6 km/h 92% 0 mm WeatherDisplay:10.37 W/m2 OVC
08:14 13.2 °C 11.9 °C 1013.4 hPa ESE 3.7 km/h 3.7 km/h 92% 0 mm WeatherDisplay:10.37 W/m2 OVC
08:19 13.4 °C 12.3 °C 1013.1 hPa ESE 5.6 km/h 5.6 km/h 93% 0 mm WeatherDisplay:10.37 W/m2 OVC
08:24 13.4 °C 12.3 °C 1013.1 hPa ESE 6.4 km/h 6.4 km/h 93% 0 mm WeatherDisplay:10.37 W/m2 OVC
08:29 13.6 °C 12.3 °C 1013.1 hPa ESE 6.4 km/h 6.4 km/h 92% 0 mm WeatherDisplay:10.37 W/m2 OVC
08:34 13.7 °C 12.6 °C 1013.4 hPa East 11.3 km/h 11.3 km/h 93% 0 mm WeatherDisplay:10.37 W/m2 OVC
08:39 13.9 °C 12.8 °C 1013.1 hPa ESE 9.7 km/h 9.7 km/h 93% 0 mm WeatherDisplay:10.37 W/m2 OVC
08:44 14.1 °C 12.8 °C 1013.1 hPa NNE 5.6 km/h 5.6 km/h 92% 0 mm WeatherDisplay:10.37 W/m2 OVC
08:49 14.3 °C 13.2 °C 1013.1 hPa East 9.7 km/h 9.7 km/h 93% 0 mm WeatherDisplay:10.37 W/m2 OVC
08:54 14.5 °C 13.3 °C 1013.1 hPa East 9.3 km/h 9.3 km/h 93% 0 mm WeatherDisplay:10.37 W/m2 OVC
08:59 14.7 °C 13.5 °C 1013.1 hPa East 9.3 km/h 9.3 km/h 93% 0 mm WeatherDisplay:10.37 W/m2 OVC
09:04 14.9 °C 13.8 °C 1013.1 hPa NNE 8 km/h 8 km/h 93% 0 mm WeatherDisplay:10.37 W/m2 SCT
09:09 15.3 °C 14.1 °C 1013.1 hPa ESE 6.4 km/h 6.4 km/h 93% 0 mm WeatherDisplay:10.37 W/m2 SCT
09:14 15.7 °C 14.4 °C 1013.1 hPa ENE 6.4 km/h 6.4 km/h 92% 0 mm WeatherDisplay:10.37 W/m2 SCT
09:19 16.3 °C 14.9 °C 1013.1 hPa NE 9.3 km/h 9.3 km/h 92% 0 mm WeatherDisplay:10.37 W/m2 SCT
09:24 16.6 °C 15.1 °C 1013.1 hPa East 9.3 km/h 9.3 km/h 91% 0 mm WeatherDisplay:10.37 W/m2 CLR
09:29 16.9 °C 15.3 °C 1013.1 hPa NE 5.6 km/h 5.6 km/h 90% 0 mm WeatherDisplay:10.37 W/m2 CLR
09:34 17.4 °C 15.3 °C 1013.1 hPa East 11.3 km/h 11.3 km/h 88% 0 mm WeatherDisplay:10.37 W/m2 CLR
09:39 17.8 °C 15.4 °C 1013.1 hPa ENE 7.4 km/h 7.4 km/h 86% 0 mm WeatherDisplay:10.37 W/m2 CLR
09:44 18.2 °C 15.4 °C 1013.1 hPa NNE 7.4 km/h 7.4 km/h 84% 0 mm WeatherDisplay:10.37 W/m2 SCT
09:49 18.6 °C 15.6 °C 1012.8 hPa NNE 5.6 km/h 5.6 km/h 83% 0 mm WeatherDisplay:10.37 W/m2 SCT
09:54 18.7 °C 15.7 °C 1012.8 hPa NNE 11.1 km/h 11.1 km/h 83% 0 mm WeatherDisplay:10.37 W/m2 SCT
09:59 18.9 °C 15.9 °C 1012.8 hPa East 11.1 km/h 11.1 km/h 83% 0 mm WeatherDisplay:10.37 W/m2 SCT
10:04 19.1 °C 15.8 °C 1012.8 hPa ESE 7.4 km/h 7.4 km/h 81% 0 mm WeatherDisplay:10.37 W/m2 BKN
10:09 19.3 °C 15.8 °C 1012.8 hPa NNE 8 km/h 8 km/h 80% 0 mm WeatherDisplay:10.37 W/m2 BKN
10:14 19.5 °C 15.7 °C 1012.8 hPa NNE 7.4 km/h 7.4 km/h 79% 0 mm WeatherDisplay:10.37 W/m2 BKN
10:19 19.8 °C 16.1 °C 1012.8 hPa NE 5.6 km/h 5.6 km/h 79% 0 mm WeatherDisplay:10.37 W/m2 BKN
10:24 20.2 °C 16.1 °C 1013.1 hPa ENE 9.7 km/h 9.7 km/h 77% 0 mm WeatherDisplay:10.37 W/m2 OVC
10:29 20.7 °C 15.9 °C 1013.1 hPa SE 8 km/h 8 km/h 74% 0 mm WeatherDisplay:10.37 W/m2 OVC
10:34 21.2 °C 15.3 °C 1012.8 hPa SSE 11.1 km/h 11.1 km/h 69% 0 mm WeatherDisplay:10.37 W/m2 OVC
10:39 21.8 °C 16.1 °C 1012.8 hPa South 7.4 km/h 7.4 km/h 70% 0 mm WeatherDisplay:10.37 W/m2 OVC
10:44 22.2 °C 15.3 °C 1012.8 hPa South 7.4 km/h 7.4 km/h 65% 0 mm WeatherDisplay:10.37 W/m2 OVC
10:49 22.3 °C 15.3 °C 1012.8 hPa SSE 6.4 km/h 6.4 km/h 65% 0 mm WeatherDisplay:10.37 W/m2 OVC
10:54 22.3 °C 15.1 °C 1012.8 hPa SSE 16.1 km/h 16.1 km/h 64% 0 mm WeatherDisplay:10.37 W/m2 OVC
10:59 22.2 °C 15 °C 1012.8 hPa South 16.7 km/h 16.7 km/h 64% 0 mm WeatherDisplay:10.37 W/m2 OVC
11:04 22.3 °C 15.2 °C 1012.8 hPa South 9.3 km/h 9.3 km/h 64% 0 mm WeatherDisplay:10.37 W/m2 OVC
11:05 22.3 °C 15.2 °C 1012.8 hPa SSE 9.3 km/h 9.3 km/h 64% 0 mm WeatherDisplay:10.37 W/m2 OVC
11:10 22.7 °C 15 °C 1012.4 hPa SSW 9.3 km/h 9.3 km/h 62% 0 mm WeatherDisplay:10.37 W/m2 OVC
11:15 23 °C 15.6 °C 1012.4 hPa SSW 7.4 km/h 7.4 km/h 63% 0 mm WeatherDisplay:10.37 W/m2 OVC
11:20 23.1 °C 14.6 °C 1012.4 hPa SW 14.8 km/h 14.8 km/h 59% 0 mm WeatherDisplay:10.37 W/m2 OVC
11:25 22.8 °C 15.1 °C 1012.4 hPa South 12.9 km/h 12.9 km/h 62% 0 mm WeatherDisplay:10.37 W/m2 OVC
11:30 22.7 °C 15.1 °C 1012.4 hPa SSW 13 km/h 13 km/h 62% 0 mm WeatherDisplay:10.37 W/m2 OVC
11:35 22.8 °C 14.6 °C 1012.4 hPa SW 8 km/h 8 km/h 60% 0 mm WeatherDisplay:10.37 W/m2 OVC
11:40 22.8 °C 14.9 °C 1012.1 hPa SW 7.4 km/h 7.4 km/h 61% 0 mm WeatherDisplay:10.37 W/m2 OVC
11:45 23 °C 14.3 °C 1012.4 hPa SW 14.5 km/h 14.5 km/h 58% 0 mm WeatherDisplay:10.37 W/m2 OVC
11:50 22.8 °C 14.6 °C 1012.1 hPa SSW 8 km/h 8 km/h 60% 0 mm WeatherDisplay:10.37 W/m2 OVC
11:55 22.9 °C 14.7 °C 1012.1 hPa SW 7.4 km/h 7.4 km/h 60% 0 mm WeatherDisplay:10.37 W/m2 OVC
12:00 23.1 °C 15.6 °C 1012.1 hPa SSW 11.3 km/h 11.3 km/h 63% 0 mm WeatherDisplay:10.37 W/m2 OVC
12:05 22.9 °C 14.7 °C 1012.1 hPa West 9.3 km/h 9.3 km/h 60% 0 mm WeatherDisplay:10.37 W/m2 BKN
12:10 23.1 °C 14.6 °C 1011.7 hPa SW 9.3 km/h 9.3 km/h 59% 0 mm WeatherDisplay:10.37 W/m2 BKN
12:15 23.3 °C 15.4 °C 1011.7 hPa SW 9.7 km/h 9.7 km/h 61% 0 mm WeatherDisplay:10.37 W/m2 BKN
12:20 23.5 °C 14.4 °C 1011.7 hPa SSE 7.4 km/h 7.4 km/h 57% 0 mm WeatherDisplay:10.37 W/m2 BKN
12:25 24 °C 14.9 °C 1011.7 hPa SSE 1.9 km/h 1.9 km/h 57% 0 mm WeatherDisplay:10.37 W/m2 BKN
12:30 24.6 °C 15.5 °C 1011.7 hPa SSW 7.4 km/h 7.4 km/h 57% 0 mm WeatherDisplay:10.37 W/m2 BKN
12:35 25.1 °C 14.8 °C 1011.4 hPa SSE 9.7 km/h 9.7 km/h 53% 0 mm WeatherDisplay:10.37 W/m2 BKN
12:40 25.1 °C 14.5 °C 1011.4 hPa South 6.4 km/h 6.4 km/h 52% 0 mm WeatherDisplay:10.37 W/m2 BKN
12:45 24.6 °C 14.1 °C 1011.4 hPa SW 11.3 km/h 11.3 km/h 52% 0 mm WeatherDisplay:10.37 W/m2 SCT
12:50 24.6 °C 14.4 °C 1011.4 hPa SSE 5.6 km/h 5.6 km/h 53% 0 mm WeatherDisplay:10.37 W/m2 SCT
12:55 25 °C 14.4 °C 1011.4 hPa South 11.3 km/h 11.3 km/h 52% 0 mm WeatherDisplay:10.37 W/m2 SCT
13:00 25.1 °C 14.8 °C 1011.1 hPa WSW 11.3 km/h 11.3 km/h 53% 0 mm WeatherDisplay:10.37 W/m2 SCT
13:05 24.8 °C 13.6 °C 1011.1 hPa West 11.3 km/h 11.3 km/h 50% 0 mm WeatherDisplay:10.37 W/m2 SCT
13:10 24.7 °C 14.4 °C 1011.1 hPa SSW 11.1 km/h 11.1 km/h 53% 0 mm WeatherDisplay:10.37 W/m2 SCT
13:15 24.8 °C 13.6 °C 1010.7 hPa WSW 11.1 km/h 11.1 km/h 50% 0 mm WeatherDisplay:10.37 W/m2 SCT
13:20 24.9 °C 14.4 °C 1010.7 hPa SSW 13 km/h 13 km/h 52% 0 mm WeatherDisplay:10.37 W/m2 SCT
13:25 25.4 °C 14.2 °C 1010.7 hPa WSW 11.1 km/h 11.1 km/h 50% 0 mm WeatherDisplay:10.37 W/m2 SCT
13:30 25.3 °C 14.1 °C 1010.7 hPa SW 7.4 km/h 7.4 km/h 50% 0 mm WeatherDisplay:10.37 W/m2 SCT
13:35 25.4 °C 13.9 °C 1010.7 hPa SSE 11.3 km/h 11.3 km/h 49% 0 mm WeatherDisplay:10.37 W/m2 SCT
13:40 25.4 °C 14.2 °C 1010.7 hPa South 11.3 km/h 11.3 km/h 50% 0 mm WeatherDisplay:10.37 W/m2 SCT
13:45 25.8 °C 13.6 °C 1010.7 hPa SW 14.5 km/h 14.5 km/h 47% 0 mm WeatherDisplay:10.37 W/m2 SCT
13:50 25.9 °C 12.4 °C 1010.7 hPa SSE 16.1 km/h 16.1 km/h 43% 0 mm WeatherDisplay:10.37 W/m2 SCT
13:55 26 °C 12.8 °C 1010.4 hPa SW 11.3 km/h 11.3 km/h 44% 0 mm WeatherDisplay:10.37 W/m2 SCT
14:00 25.9 °C 13.4 °C 1010.4 hPa SSW 11.1 km/h 11.1 km/h 46% 0 mm WeatherDisplay:10.37 W/m2 SCT
14:05 26.2 °C 12.3 °C 1010.4 hPa ESE 11.3 km/h 11.3 km/h 42% 0 mm WeatherDisplay:10.37 W/m2 SCT
14:10 26.1 °C 12.8 °C 1010.4 hPa South 11.1 km/h 11.1 km/h 44% 0 mm WeatherDisplay:10.37 W/m2 SCT
14:15 26 °C 12.4 °C 1010.4 hPa South 11.1 km/h 11.1 km/h 43% 0 mm WeatherDisplay:10.37 W/m2 SCT
14:20 26.1 °C 12.5 °C 1010 hPa South 11.3 km/h 11.3 km/h 43% 0 mm WeatherDisplay:10.37 W/m2 SCT
14:25 25.9 °C 12.3 °C 1010 hPa SSW 16.7 km/h 16.7 km/h 43% 0 mm WeatherDisplay:10.37 W/m2 CLR
14:30 26 °C 11.7 °C 1010.4 hPa SSE 24.1 km/h 24.1 km/h 41% 0 mm WeatherDisplay:10.37 W/m2 CLR
14:35 25.8 °C 11.9 °C 1010.4 hPa SW 14.8 km/h 14.8 km/h 42% 0 mm WeatherDisplay:10.37 W/m2 CLR
14:40 26 °C 12.1 °C 1010 hPa SSW 13 km/h 13 km/h 42% 0 mm WeatherDisplay:10.37 W/m2 CLR
14:45 26.1 °C 12.5 °C 1010 hPa SW 13 km/h 13 km/h 43% 0 mm WeatherDisplay:10.37 W/m2 SCT
14:50 26.1 °C 11.4 °C 1010 hPa SW 18.5 km/h 18.5 km/h 40% 0 mm WeatherDisplay:10.37 W/m2 SCT
14:55 25.9 °C 11.9 °C 1010 hPa SSE 18.5 km/h 18.5 km/h 42% 0 mm WeatherDisplay:10.37 W/m2 SCT
15:00 25.8 °C 11.6 °C 1009.7 hPa SW 18.5 km/h 18.5 km/h 41% 0 mm WeatherDisplay:10.37 W/m2 SCT
15:05 25.9 °C 11.9 °C 1010 hPa SE 18.5 km/h 18.5 km/h 42% 0 mm WeatherDisplay:10.37 W/m2 CLR
15:10 26.2 °C 11.8 °C 1010 hPa SSW 19.3 km/h 19.3 km/h 41% 0 mm WeatherDisplay:10.37 W/m2 CLR
15:15 26.4 °C 12.1 °C 1009.7 hPa West 11.3 km/h 11.3 km/h 41% 0 mm WeatherDisplay:10.37 W/m2 CLR
15:20 26.4 °C 12.1 °C 1009.7 hPa SSE 9.3 km/h 9.3 km/h 41% 0 mm WeatherDisplay:10.37 W/m2 CLR
15:25 26.4 °C 12.4 °C 1010 hPa South 16.7 km/h 16.7 km/h 42% 0 mm WeatherDisplay:10.37 W/m2 CLR
15:30 26.2 °C 11.5 °C 1010 hPa SSE 17.7 km/h 17.7 km/h 40% 0 mm WeatherDisplay:10.37 W/m2 CLR
15:35 25.8 °C 11.5 °C 1009.7 hPa SW 16.7 km/h 16.7 km/h 41% 0 mm WeatherDisplay:10.37 W/m2 SCT
15:40 25.8 °C 12.6 °C 1009.7 hPa West 16.7 km/h 16.7 km/h 44% 0 mm WeatherDisplay:10.37 W/m2 SCT
15:45 26.1 °C 13.2 °C 1009.7 hPa SSW 13 km/h 13 km/h 45% 0 mm WeatherDisplay:10.37 W/m2 SCT
15:50 26.3 °C 12.3 °C 1009.7 hPa SW 14.5 km/h 14.5 km/h 42% 0 mm WeatherDisplay:10.37 W/m2 SCT
15:55 25.7 °C 12.2 °C 1009.7 hPa ESE 14.8 km/h 14.8 km/h 43% 0 mm WeatherDisplay:10.37 W/m2 SCT
16:00 25.7 °C 12.6 °C 1009.7 hPa SSW 14.8 km/h 14.8 km/h 44% 0 mm WeatherDisplay:10.37 W/m2 SCT
16:05 25.6 °C 12.4 °C 1009.7 hPa South 14.8 km/h 14.8 km/h 44% 0 mm WeatherDisplay:10.37 W/m2 CLR
16:10 25.4 °C 11.9 °C 1009.7 hPa SSW 14.8 km/h 14.8 km/h 43% 0 mm WeatherDisplay:10.37 W/m2 CLR
16:15 25 °C 12.2 °C 1009.7 hPa South 13 km/h 13 km/h 45% 0 mm WeatherDisplay:10.37 W/m2 CLR
16:20 24.5 °C 12.1 °C 1009.7 hPa SE 16.7 km/h 16.7 km/h 46% 0 mm WeatherDisplay:10.37 W/m2 CLR
16:25 24.2 °C 12.5 °C 1009.4 hPa SSW 9.3 km/h 9.3 km/h 48% 0 mm WeatherDisplay:10.37 W/m2 CLR
16:30 24 °C 12.3 °C 1009.7 hPa South 13 km/h 13 km/h 48% 0 mm WeatherDisplay:10.37 W/m2 CLR
16:35 23.7 °C 12.7 °C 1009.7 hPa SW 13 km/h 13 km/h 50% 0 mm WeatherDisplay:10.37 W/m2 CLR
16:36 23.7 °C 12.7 °C 1009.7 hPa South 14.5 km/h 14.5 km/h 50% 0 mm WeatherDisplay:10.37 W/m2 CLR
16:41 23.7 °C 12.6 °C 1009.7 hPa South 14.8 km/h 14.8 km/h 50% 0 mm WeatherDisplay:10.37 W/m2 CLR
16:46 23.5 °C 12.8 °C 1009.7 hPa South 14.8 km/h 14.8 km/h 51% 0 mm WeatherDisplay:10.37 W/m2 CLR
16:51 23.4 °C 12.9 °C 1009.7 hPa SSW 6.4 km/h 6.4 km/h 52% 0 mm WeatherDisplay:10.37 W/m2 CLR
16:56 23.4 °C 12.9 °C 1009.7 hPa South 7.4 km/h 7.4 km/h 52% 0 mm WeatherDisplay:10.37 W/m2 CLR
17:01 23.4 °C 13 °C 1009.7 hPa SE 7.4 km/h 7.4 km/h 52% 0 mm WeatherDisplay:10.37 W/m2 CLR
17:06 23.5 °C 13.3 °C 1009.7 hPa SSE 7.4 km/h 7.4 km/h 53% 0 mm WeatherDisplay:10.37 W/m2 SCT
17:11 23.6 °C 13.7 °C 1009.7 hPa East 7.4 km/h 7.4 km/h 54% 0 mm WeatherDisplay:10.37 W/m2 SCT
17:16 23.6 °C 13.2 °C 1009.7 hPa SSW 9.3 km/h 9.3 km/h 52% 0 mm WeatherDisplay:10.37 W/m2 SCT
17:21 23.6 °C 13.1 °C 1009.7 hPa South 9.7 km/h 9.7 km/h 52% 0 mm WeatherDisplay:10.37 W/m2 SCT
17:26 23.4 °C 13.2 °C 1010 hPa South 7.4 km/h 7.4 km/h 53% 0 mm WeatherDisplay:10.37 W/m2 BKN
17:31 23 °C 12.9 °C 1010 hPa SE 13 km/h 13 km/h 53% 0 mm WeatherDisplay:10.37 W/m2 BKN
17:36 22.8 °C 13 °C 1010 hPa SE 9.7 km/h 9.7 km/h 54% 0 mm WeatherDisplay:10.37 W/m2 BKN
17:41 22.7 °C 13.2 °C 1010 hPa SW 9.3 km/h 9.3 km/h 55% 0 mm WeatherDisplay:10.37 W/m2 BKN
17:46 22.7 °C 13.4 °C 1010 hPa SSE 7.4 km/h 7.4 km/h 56% 0 mm WeatherDisplay:10.37 W/m2 BKN
17:51 22.6 °C 12.8 °C 1010 hPa South 14.5 km/h 14.5 km/h 54% 0 mm WeatherDisplay:10.37 W/m2 BKN
17:56 22.4 °C 12.7 °C 1010 hPa SSE 14.8 km/h 14.8 km/h 54% 0 mm WeatherDisplay:10.37 W/m2 BKN
18:01 22.4 °C 13.2 °C 1010 hPa SSE 14.8 km/h 14.8 km/h 56% 0 mm WeatherDisplay:10.37 W/m2 BKN
18:06 22.2 °C 13.2 °C 1010 hPa SSE 13 km/h 13 km/h 57% 0 mm WeatherDisplay:10.37 W/m2 OVC
18:11 22.1 °C 13.1 °C 1010 hPa South 9.3 km/h 9.3 km/h 57% 0 mm WeatherDisplay:10.37 W/m2 OVC
18:16 21.9 °C 13.2 °C 1010 hPa SSE 11.1 km/h 11.1 km/h 58% 0 mm WeatherDisplay:10.37 W/m2 OVC
18:21 21.8 °C 13.1 °C 1010 hPa South 16.7 km/h 16.7 km/h 58% 0 mm WeatherDisplay:10.37 W/m2 OVC
18:26 21.7 °C 13 °C 1010 hPa South 16.7 km/h 16.7 km/h 58% 0 mm WeatherDisplay:10.37 W/m2 OVC
18:31 21.6 °C 13.2 °C 1010 hPa South 9.3 km/h 9.3 km/h 59% 0 mm WeatherDisplay:10.37 W/m2 OVC
18:36 21.5 °C 13.1 °C 1010 hPa SSW 7.4 km/h 7.4 km/h 59% 0 mm WeatherDisplay:10.37 W/m2 OVC
18:41 21.4 °C 13.3 °C 1010.4 hPa South 7.4 km/h 7.4 km/h 60% 0 mm WeatherDisplay:10.37 W/m2 OVC
18:46 21.2 °C 13.1 °C 1010.4 hPa SSE 9.3 km/h 9.3 km/h 60% 0 mm WeatherDisplay:10.37 W/m2 OVC
18:51 21.2 °C 13.3 °C 1010.4 hPa South 6.4 km/h 6.4 km/h 61% 0 mm WeatherDisplay:10.37 W/m2 OVC
18:56 21.1 °C 13.5 °C 1010.4 hPa South 5.6 km/h 5.6 km/h 62% 0 mm WeatherDisplay:10.37 W/m2 OVC
19:01 21.1 °C 13.4 °C 1010.4 hPa South 5.6 km/h 5.6 km/h 62% 0 mm WeatherDisplay:10.37 W/m2 OVC
19:06 20.9 °C 13.6 °C 1010.4 hPa SSE 5.6 km/h 5.6 km/h 63% 0 mm WeatherDisplay:10.37 W/m2 OVC
19:11 20.9 °C 13.6 °C 1010.4 hPa SSW 5.6 km/h 5.6 km/h 63% 0 mm WeatherDisplay:10.37 W/m2 OVC
19:16 20.9 °C 13.6 °C 1010.4 hPa SSE 5.6 km/h 5.6 km/h 63% 0 mm WeatherDisplay:10.37 W/m2 OVC
19:21 21 °C 13.7 °C 1010.4 hPa SW 9.3 km/h 9.3 km/h 63% 0 mm WeatherDisplay:10.37 W/m2 OVC
19:26 20.9 °C 13.6 °C 1010.4 hPa SSE 9.3 km/h 9.3 km/h 63% 0 mm WeatherDisplay:10.37 W/m2 OVC
19:31 20.9 °C 13.8 °C 1010.4 hPa SSW 9.3 km/h 9.3 km/h 64% 0 mm WeatherDisplay:10.37 W/m2 OVC
19:36 20.8 °C 13.7 °C 1010.4 hPa SSW 3.7 km/h 3.7 km/h 64% 0 mm WeatherDisplay:10.37 W/m2 OVC
19:41 20.7 °C 13.7 °C 1010.4 hPa South 11.3 km/h 11.3 km/h 64% 0 mm WeatherDisplay:10.37 W/m2 OVC
19:46 20.7 °C 13.7 °C 1010.7 hPa SSE 5.6 km/h 5.6 km/h 64% 0 mm WeatherDisplay:10.37 W/m2 OVC
19:51 20.7 °C 13.8 °C 1010.7 hPa SSE 5.6 km/h 5.6 km/h 65% 0 mm WeatherDisplay:10.37 W/m2 OVC
19:56 20.6 °C 14 °C 1010.7 hPa SSE 5.6 km/h 5.6 km/h 66% 0 mm WeatherDisplay:10.37 W/m2 OVC
20:01 20.5 °C 13.9 °C 1010.7 hPa South 3.7 km/h 3.7 km/h 66% 0 mm WeatherDisplay:10.37 W/m2 OVC
20:06 20.5 °C 13.9 °C 1011.1 hPa SSE 3.7 km/h 3.7 km/h 66% 0 mm WeatherDisplay:10.37 W/m2 OVC
20:11 20.4 °C 13.8 °C 1011.1 hPa SSE 3.7 km/h 3.7 km/h 66% 0 mm WeatherDisplay:10.37 W/m2 OVC
20:16 20.5 °C 14.2 °C 1011.1 hPa SSE 1.9 km/h 1.9 km/h 67% 0 mm WeatherDisplay:10.37 W/m2 OVC
20:21 20.4 °C 14.1 °C 1011.1 hPa SSE 1.6 km/h 1.6 km/h 67% 0 mm WeatherDisplay:10.37 W/m2 OVC
20:26 20.3 °C 14 °C 1011.1 hPa South 5.6 km/h 5.6 km/h 67% 0 mm WeatherDisplay:10.37 W/m2 OVC
20:31 20.3 °C 14.2 °C 1011.1 hPa South 5.6 km/h 5.6 km/h 68% 0 mm WeatherDisplay:10.37 W/m2 OVC
20:36 20.2 °C 14.1 °C 1011.1 hPa South 1.9 km/h 1.9 km/h 68% 0 mm WeatherDisplay:10.37 W/m2 OVC
20:41 20.2 °C 14.3 °C 1011.1 hPa SSW 3.7 km/h 3.7 km/h 69% 0 mm WeatherDisplay:10.37 W/m2 OVC
20:46 20.1 °C 14 °C 1011.1 hPa SW 5.6 km/h 5.6 km/h 68% 0 mm WeatherDisplay:10.37 W/m2 OVC
20:51 20.1 °C 13.9 °C 1011.1 hPa SW 5.6 km/h 5.6 km/h 68% 0 mm WeatherDisplay:10.37 W/m2 OVC
20:56 20.1 °C 14.2 °C 1011.1 hPa SW 3.7 km/h 3.7 km/h 69% 0 mm WeatherDisplay:10.37 W/m2 OVC
21:01 20.1 °C 14.2 °C 1011.4 hPa SW 3.7 km/h 3.7 km/h 69% 0 mm WeatherDisplay:10.37 W/m2 OVC
21:06 19.9 °C 14.4 °C 1011.4 hPa WSW 5.6 km/h 5.6 km/h 71% 0 mm WeatherDisplay:10.37 W/m2 OVC
21:11 19.6 °C 14.6 °C 1011.4 hPa West 5.6 km/h 5.6 km/h 73% 0 mm WeatherDisplay:10.37 W/m2 OVC
21:16 19.3 °C 14.6 °C 1011.4 hPa WSW 9.3 km/h 9.3 km/h 74% 0 mm WeatherDisplay:10.37 W/m2 OVC
21:21 19.1 °C 14.5 °C 1011.7 hPa SW 11.3 km/h 11.3 km/h 75% 0 mm WeatherDisplay:10.37 W/m2 OVC
21:26 18.8 °C 14.7 °C 1011.7 hPa WSW 11.3 km/h 11.3 km/h 77% 0 mm WeatherDisplay:10.37 W/m2 OVC
21:31 18.6 °C 14.8 °C 1012.1 hPa SW 11.1 km/h 11.1 km/h 79% 0 mm WeatherDisplay:10.37 W/m2 OVC
21:36 18.3 °C 14.7 °C 1011.7 hPa WNW 9.3 km/h 9.3 km/h 80% 0 mm WeatherDisplay:10.37 W/m2 OVC
21:41 18.1 °C 14.7 °C 1012.1 hPa WSW 9.3 km/h 9.3 km/h 81% 0 mm WeatherDisplay:10.37 W/m2 OVC
21:46 17.8 °C 14.9 °C 1012.1 hPa SW 5.6 km/h 5.6 km/h 83% 0 mm WeatherDisplay:10.37 W/m2 OVC
21:51 17.7 °C 14.7 °C 1012.1 hPa SW 11.3 km/h 11.3 km/h 83% 0 mm WeatherDisplay:10.37 W/m2 OVC
21:56 17.3 °C 14.6 °C 1012.1 hPa SSW 14.8 km/h 14.8 km/h 84% 0 mm WeatherDisplay:10.37 W/m2 OVC
22:01 17 °C 14.6 °C 1012.1 hPa SW 14.8 km/h 14.8 km/h 86% 0 mm WeatherDisplay:10.37 W/m2 OVC
22:06 16.7 °C 14.5 °C 1012.4 hPa SW 9.3 km/h 9.3 km/h 87% 0 mm WeatherDisplay:10.37 W/m2 OVC
22:11 16.7 °C 14.7 °C 1012.4 hPa SW 1.9 km/h 1.9 km/h 88% 0 mm WeatherDisplay:10.37 W/m2 OVC
22:16 16.6 °C 14.6 °C 1012.4 hPa SW 3.7 km/h 3.7 km/h 88% 0 mm WeatherDisplay:10.37 W/m2 OVC
22:21 16.5 °C 14.7 °C 1012.4 hPa SW 3.7 km/h 3.7 km/h 89% 0 mm WeatherDisplay:10.37 W/m2 OVC
22:26 16.4 °C 14.6 °C 1012.4 hPa SW 5.6 km/h 5.6 km/h 89% 0 mm WeatherDisplay:10.37 W/m2 OVC
22:31 16.3 °C 14.4 °C 1012.4 hPa SW 5.6 km/h 5.6 km/h 89% 0 mm WeatherDisplay:10.37 W/m2 OVC
22:36 16.2 °C 14.4 °C 1012.4 hPa SW 5.6 km/h 5.6 km/h 89% 0 mm WeatherDisplay:10.37 W/m2 OVC
22:41 16.2 °C 14.3 °C 1012.4 hPa SW 3.7 km/h 3.7 km/h 89% 0 mm WeatherDisplay:10.37 W/m2 OVC
22:46 16.1 °C 14.2 °C 1012.4 hPa SW 5.6 km/h 5.6 km/h 89% 0 mm WeatherDisplay:10.37 W/m2 OVC
22:51 16.1 °C 14.4 °C 1012.4 hPa SW 5.6 km/h 5.6 km/h 90% 0 mm WeatherDisplay:10.37 W/m2 OVC
22:56 16 °C 14.3 °C 1012.4 hPa SW 3.7 km/h 3.7 km/h 90% 0 mm WeatherDisplay:10.37 W/m2 OVC
23:01 16 °C 14.3 °C 1012.8 hPa SW 5.6 km/h 5.6 km/h 90% 0 mm WeatherDisplay:10.37 W/m2 OVC
23:06 15.9 °C 14.3 °C 1012.4 hPa SW 3.7 km/h 3.7 km/h 90% 0 mm WeatherDisplay:10.37 W/m2 OVC
23:11 15.9 °C 14.3 °C 1012.4 hPa SW 3.7 km/h 3.7 km/h 90% 0 mm WeatherDisplay:10.37 W/m2 OVC
23:19 15.9 °C 14.2 °C 1012.4 hPa SW 3.7 km/h 3.7 km/h 90% 0 mm WeatherDisplay:10.37 W/m2 OVC
23:20 15.9 °C 14.2 °C 1012.4 hPa SW 3.7 km/h 3.7 km/h 90% 0 mm WeatherDisplay:10.37 W/m2 OVC
23:24 15.9 °C 14.2 °C 1012.4 hPa SW 1.9 km/h 1.9 km/h 90% 0 mm WeatherDisplay:10.37 W/m2 OVC
23:25 15.8 °C 14.2 °C 1012.4 hPa SW 1.9 km/h 1.9 km/h 90% 0 mm WeatherDisplay:10.37 W/m2 OVC
23:26 15.9 °C 14.2 °C 1012.4 hPa SW 1.9 km/h 1.9 km/h 90% 0 mm WeatherDisplay:10.37 W/m2 OVC
23:27 15.9 °C 14.2 °C 1012.4 hPa SW 1.9 km/h 1.9 km/h 90% 0 mm WeatherDisplay:10.37 W/m2 OVC
23:29 15.9 °C 14.2 °C 1012.4 hPa SW 3.2 km/h 3.2 km/h 90% 0 mm WeatherDisplay:10.37 W/m2 OVC
23:32 15.8 °C 14.2 °C 1012.4 hPa SW 1.9 km/h 1.9 km/h 90% 0 mm WeatherDisplay:10.37 W/m2 OVC
23:37 15.8 °C 14.2 °C 1012.4 hPa SW 1.9 km/h 1.9 km/h 90% 0 mm WeatherDisplay:10.37 W/m2 OVC
23:42 15.8 °C 14.2 °C 1012.4 hPa SW 1.9 km/h 1.9 km/h 90% 0 mm WeatherDisplay:10.37 W/m2 OVC
23:47 15.8 °C 14.1 °C 1012.4 hPa SW 3.7 km/h 3.7 km/h 90% 0 mm WeatherDisplay:10.37 W/m2 OVC
23:52 15.7 °C 14.1 °C 1012.4 hPa SW 3.7 km/h 3.7 km/h 90% 0 mm WeatherDisplay:10.37 W/m2 OVC
23:57 15.7 °C 14.1 °C 1012.4 hPa SW 1.9 km/h 1.9 km/h 90% 0 mm WeatherDisplay:10.37 W/m2 OVC
Smyth Weather
Compliments of Weather Underground - 3 mb